Time;durP1;ratioP1;P1;durP2;ratioP2;P2;SDS_P1;SDS_P2;PMS_P1;PMS_P2;Temp;Humidity;BMP_temperature;BMP_pressure;BME280_temperature;BME280_humidity;BME280_pressure;Samples;Min_cycle;Max_cycle;Signal;HPM_P1;HPM_P2
2021/09/26 00:01:27;;;;;;;9.98;5.10;;;;;;;12.52;71.25;97147.31;5115275;28;20150;-64
2021/09/26 00:03:52;;;;;;;5.50;4.80;;;;;;;12.53;70.59;97149.03;5114567;28;20118;-62
2021/09/26 00:06:19;;;;;;;7.90;5.22;;;;;;;12.45;70.51;97140.56;5113347;28;20039;-65
2021/09/26 00:08:44;;;;;;;6.32;5.15;;;;;;;12.41;70.91;97137.22;5114908;28;20020;-65
2021/09/26 00:11:10;;;;;;;11.40;5.95;;;;;;;12.39;71.45;97139.03;5114553;28;20024;-63
2021/09/26 00:13:38;;;;;;;7.70;5.53;;;;;;;12.31;72.40;97134.06;5114281;28;20537;-65
2021/09/26 00:16:06;;;;;;;10.93;6.35;;;;;;;12.16;73.33;97124.13;5113361;28;20027;-63
2021/09/26 00:18:32;;;;;;;8.60;5.55;;;;;;;12.15;73.28;97125.00;5114035;28;20019;-65
2021/09/26 00:20:58;;;;;;;10.85;6.65;;;;;;;12.10;73.06;97127.81;5114817;28;20056;-64
2021/09/26 00:23:25;;;;;;;7.65;5.60;;;;;;;12.11;73.00;97119.03;5114552;28;20031;-63
2021/09/26 00:25:53;;;;;;;9.27;6.10;;;;;;;12.12;72.70;97118.13;5113470;28;20020;-63
2021/09/26 00:28:22;;;;;;;8.27;5.40;;;;;;;12.13;72.61;97125.94;5114609;28;20019;-65
2021/09/26 00:30:48;;;;;;;7.97;5.97;;;;;;;12.07;72.09;97123.50;5114361;28;20034;-64
2021/09/26 00:33:15;;;;;;;8.57;6.18;;;;;;;11.95;73.21;97119.53;5114603;28;20023;-63
2021/09/26 00:35:41;;;;;;;9.18;6.28;;;;;;;11.96;73.15;97125.63;5114086;28;20032;-62
2021/09/26 00:38:06;;;;;;;9.07;6.10;;;;;;;11.92;73.67;97122.25;5113749;28;20486;-63
2021/09/26 00:40:32;;;;;;;8.98;6.85;;;;;;;11.92;73.57;97122.25;5113839;28;20027;-64
2021/09/26 00:42:58;;;;;;;12.35;6.53;;;;;;;11.91;73.31;97122.28;5114351;28;20032;-65
2021/09/26 00:45:23;;;;;;;7.72;5.68;;;;;;;11.84;73.58;97129.53;5114257;28;20034;-62
2021/09/26 00:47:49;;;;;;;12.52;6.45;;;;;;;11.83;73.54;97127.81;5113952;28;20032;-65
2021/09/26 00:50:16;;;;;;;11.13;6.15;;;;;;;11.80;73.60;97117.44;5113961;28;20102;-65
2021/09/26 00:52:45;;;;;;;9.88;6.32;;;;;;;11.80;73.91;97118.28;5114084;28;20489;-62
2021/09/26 00:55:11;;;;;;;7.85;6.20;;;;;;;11.76;73.36;97106.19;5113511;28;20044;-63
2021/09/26 00:57:38;;;;;;;8.68;6.15;;;;;;;11.80;73.14;97110.41;5114317;28;20099;-62
2021/09/26 01:00:06;;;;;;;11.30;7.00;;;;;;;11.75;73.48;97112.34;5113761;28;20028;-63
2021/09/26 01:02:31;;;;;;;11.25;7.00;;;;;;;11.71;73.67;97110.75;5113885;28;20024;-62
2021/09/26 01:04:57;;;;;;;7.75;6.40;;;;;;;11.75;73.76;97104.47;5113339;28;20057;-64
2021/09/26 01:07:28;;;;;;;13.77;6.32;;;;;;;11.81;73.18;97116.53;5113324;28;20507;-64
2021/09/26 01:10:12;;;;;;;8.93;6.30;;;;;;;11.83;72.87;97120.78;5114204;28;20063;-65
2021/09/26 01:12:43;;;;;;;10.02;7.15;;;;;;;11.82;73.41;97118.22;5093852;28;20028;-62
2021/09/26 01:15:47;;;;;;;9.63;6.15;;;;;;;11.83;73.34;97126.03;5101266;28;20472;-64
2021/09/26 01:18:36;;;;;;;8.80;6.57;;;;;;;11.80;73.05;97118.28;5113383;28;20504;-63
2021/09/26 01:21:31;;;;;;;9.73;6.72;;;;;;;11.75;73.49;97122.84;5113981;28;20047;-64
2021/09/26 01:24:28;;;;;;;10.15;6.90;;;;;;;11.75;73.00;97123.66;5104450;28;20048;-63
2021/09/26 01:27:16;;;;;;;14.18;6.53;;;;;;;11.71;72.92;97119.44;5102656;28;20500;-64
2021/09/26 01:30:19;;;;;;;8.75;7.40;;;;;;;11.66;73.69;97117.88;5084549;28;20114;-64
2021/09/26 01:32:53;;;;;;;9.30;6.75;;;;;;;11.65;73.80;97121.44;5113842;28;20023;-65
2021/09/26 01:35:21;;;;;;;10.30;6.18;;;;;;;11.61;73.74;97126.78;5113349;28;20035;-65
2021/09/26 01:38:17;;;;;;;10.50;6.03;;;;;;;11.61;73.69;97116.28;5112887;28;20020;-65
2021/09/26 01:40:49;;;;;;;8.95;6.93;;;;;;;11.55;74.22;97119.09;5109804;28;20044;-62
2021/09/26 01:43:20;;;;;;;8.75;7.32;;;;;;;11.53;74.40;97114.81;5113457;28;20084;-63
2021/09/26 01:45:50;;;;;;;10.77;6.32;;;;;;;11.58;73.24;97116.38;5113468;28;20027;-64
2021/09/26 01:48:19;;;;;;;10.90;6.35;;;;;;;11.54;73.62;97112.16;5113271;28;20434;-64
2021/09/26 01:50:49;;;;;;;8.23;6.68;;;;;;;11.52;75.45;97118.31;5113219;28;20027;-64
2021/09/26 01:53:15;;;;;;;9.40;7.35;;;;;;;11.52;75.73;97116.56;5113285;28;20048;-64
2021/09/26 01:55:42;;;;;;;10.75;7.30;;;;;;;11.52;75.65;97115.72;5113405;28;20065;-64
2021/09/26 01:58:09;;;;;;;9.23;6.50;;;;;;;11.46;75.11;97111.53;5112947;28;20031;-65
2021/09/26 02:00:34;;;;;;;10.35;7.03;;;;;;;11.48;74.97;97117.59;5113097;28;20067;-62
2021/09/26 02:03:00;;;;;;;12.00;6.70;;;;;;;11.49;75.07;97111.44;5113034;28;20074;-65
2021/09/26 02:05:26;;;;;;;9.18;6.43;;;;;;;11.49;74.85;97109.69;5113175;28;20027;-64
2021/09/26 02:07:52;;;;;;;9.00;6.45;;;;;;;11.52;74.35;97106.09;5112198;28;20028;-64
2021/09/26 02:10:21;;;;;;;8.80;6.53;;;;;;;11.52;74.37;97107.84;5113111;28;20034;-65
2021/09/26 02:12:47;;;;;;;7.88;6.13;;;;;;;11.44;74.37;97108.97;5113288;28;20023;-65
2021/09/26 02:15:19;;;;;;;8.18;5.85;;;;;;;11.44;73.88;97101.09;5112547;28;20541;-62
2021/09/26 02:17:47;;;;;;;8.43;5.65;;;;;;;11.45;73.93;97107.22;5112581;28;20492;-65
2021/09/26 02:20:16;;;;;;;8.82;6.28;;;;;;;11.42;73.55;97108.19;5111674;28;20107;-64
2021/09/26 02:22:44;;;;;;;11.88;6.55;;;;;;;11.44;73.60;97102.88;5112909;28;20040;-63
2021/09/26 02:25:10;;;;;;;7.15;6.03;;;;;;;11.41;73.92;97108.22;5113186;28;20054;-64
2021/09/26 02:27:37;;;;;;;13.18;6.57;;;;;;;11.35;73.84;97097.03;5113159;28;20388;-65
2021/09/26 02:30:05;;;;;;;10.85;6.90;;;;;;;11.34;74.76;97099.69;5115090;28;20149;-63
2021/09/26 02:32:31;;;;;;;7.78;6.05;;;;;;;11.27;75.07;97099.03;5116997;28;20465;-64
2021/09/26 02:34:57;;;;;;;7.35;6.30;;;;;;;11.26;74.84;97102.56;5116865;28;20039;-63
2021/09/26 02:37:22;;;;;;;9.50;6.28;;;;;;;11.29;74.80;97104.22;5116333;28;20027;-65
2021/09/26 02:39:49;;;;;;;7.25;5.82;;;;;;;11.28;74.34;97097.25;5116371;28;20034;-62
2021/09/26 02:42:20;;;;;;;9.50;5.85;;;;;;;11.29;74.54;97104.22;5116653;28;20027;-62
2021/09/26 02:45:05;;;;;;;7.95;5.43;;;;;;;11.33;73.67;97103.22;5116923;28;20024;-63
2021/09/26 02:47:39;;;;;;;8.82;5.80;;;;;;;11.28;74.38;97108.59;5116784;28;20350;-64
2021/09/26 02:50:06;;;;;;;9.23;6.40;;;;;;;11.22;74.90;97112.28;5116483;28;20110;-63
2021/09/26 02:52:32;;;;;;;9.02;6.43;;;;;;;11.19;74.84;97112.38;5116381;28;20128;-65
2021/09/26 02:54:58;;;;;;;9.85;6.05;;;;;;;11.13;75.15;97112.56;5116479;27;20043;-65
2021/09/26 02:57:24;;;;;;;13.20;5.90;;;;;;;11.10;74.85;97105.66;5116683;28;20373;-63
2021/09/26 02:59:50;;;;;;;7.88;5.72;;;;;;;11.03;75.21;97106.75;5115686;27;20039;-64
2021/09/26 03:02:15;;;;;;;6.55;5.70;;;;;;;10.97;76.05;97099.09;5116443;28;20019;-66
2021/09/26 03:04:45;;;;;;;9.10;6.22;;;;;;;10.97;77.15;97105.19;5116077;28;20020;-65
2021/09/26 03:07:14;;;;;;;9.13;6.68;;;;;;;10.99;77.00;97107.78;5115682;28;20438;-66
2021/09/26 03:09:40;;;;;;;9.20;6.15;;;;;;;11.03;76.55;97105.91;5115896;27;20019;-63
2021/09/26 03:12:14;;;;;;;7.00;5.93;;;;;;;11.07;76.51;97107.50;5116354;28;20027;-65
2021/09/26 03:14:40;;;;;;;14.13;6.43;;;;;;;11.09;76.37;97106.59;5115953;28;20028;-64
2021/09/26 03:17:05;;;;;;;8.15;6.05;;;;;;;11.12;76.18;97106.50;5116144;28;20396;-64
2021/09/26 03:19:31;;;;;;;8.23;6.25;;;;;;;11.08;76.46;97112.69;5115820;28;20019;-62
2021/09/26 03:21:56;;;;;;;7.13;5.70;;;;;;;11.08;75.94;97112.69;5115306;28;20042;-65
2021/09/26 03:24:22;;;;;;;10.73;5.85;;;;;;;11.04;75.99;97116.31;5115947;27;20080;-63
2021/09/26 03:26:48;;;;;;;8.20;6.07;;;;;;;11.02;76.72;97117.28;5115944;28;20016;-65
2021/09/26 03:29:13;;;;;;;10.63;5.35;;;;;;;11.04;76.54;97115.47;5115836;28;20393;-66
2021/09/26 03:31:39;;;;;;;7.93;5.55;;;;;;;10.95;76.80;97112.22;5115127;28;20020;-65
2021/09/26 03:34:04;;;;;;;7.95;5.85;;;;;;;10.90;76.97;97111.53;5115959;28;20012;-65
2021/09/26 03:36:30;;;;;;;9.55;5.82;;;;;;;10.93;77.06;97108.78;5115070;28;20023;-65
2021/09/26 03:38:55;;;;;;;9.45;5.65;;;;;;;10.98;76.52;97106.91;5099811;28;20036;-65
2021/09/26 03:41:21;;;;;;;9.95;5.85;;;;;;;11.00;76.44;97112.09;5115263;28;20461;-65
2021/09/26 03:43:46;;;;;;;5.68;5.03;;;;;;;11.05;75.83;97104.94;5115605;28;20468;-63
2021/09/26 03:46:12;;;;;;;7.05;5.22;;;;;;;11.04;75.12;97113.72;5115590;28;20027;-64
2021/09/26 03:48:37;;;;;;;7.78;6.13;;;;;;;11.05;74.92;97115.41;5115812;28;20027;-66
2021/09/26 03:51:03;;;;;;;7.60;5.82;;;;;;;11.06;75.25;97108.44;5115338;28;20552;-63
2021/09/26 03:53:29;;;;;;;8.07;5.43;;;;;;;11.08;75.52;97109.25;5114868;28;20051;-66
2021/09/26 03:55:54;;;;;;;7.10;5.15;;;;;;;11.08;75.40;97112.69;5115280;28;20034;-63
2021/09/26 03:58:20;;;;;;;8.07;5.72;;;;;;;11.08;74.84;97097.00;5115374;28;20028;-63
2021/09/26 04:00:45;;;;;;;8.35;5.30;;;;;;;11.10;75.42;97104.81;5115323;28;20106;-64
2021/09/26 04:03:11;;;;;;;9.65;5.30;;;;;;;11.08;75.52;97104.84;5114552;28;20111;-63
2021/09/26 04:05:36;;;;;;;7.95;5.25;;;;;;;11.08;75.04;97111.88;5115260;28;20024;-66
2021/09/26 04:08:02;;;;;;;10.32;5.25;;;;;;;11.07;75.29;97107.50;5114703;28;20028;-64
2021/09/26 04:10:28;;;;;;;8.05;4.93;;;;;;;11.11;75.30;97112.59;5114454;28;20034;-64
2021/09/26 04:12:53;;;;;;;6.53;4.88;;;;;;;11.09;74.50;97106.59;5114826;28;20024;-64
2021/09/26 04:15:19;;;;;;;7.15;5.53;;;;;;;11.05;74.99;97114.56;5114531;28;20027;-64
2021/09/26 04:17:45;;;;;;;15.00;5.35;;;;;;;11.03;75.16;97112.00;5114915;28;20472;-64
2021/09/26 04:20:12;;;;;;;7.88;5.38;;;;;;;11.08;74.83;97120.56;5114548;28;20019;-64
2021/09/26 04:22:37;;;;;;;7.85;5.55;;;;;;;11.08;75.26;97120.56;5114960;28;20061;-64
2021/09/26 04:25:04;;;;;;;7.45;5.35;;;;;;;11.10;75.02;97116.13;5114430;28;20023;-64
2021/09/26 04:27:30;;;;;;;7.38;5.68;;;;;;;11.11;75.54;97122.25;5114803;28;20530;-65
2021/09/26 04:29:55;;;;;;;5.55;4.50;;;;;;;11.17;74.85;97119.41;5114308;28;20023;-64
2021/09/26 04:32:21;;;;;;;11.50;4.93;;;;;;;11.18;74.54;97125.50;5114743;28;20023;-65
2021/09/26 04:34:47;;;;;;;8.85;4.55;;;;;;;11.20;74.11;97124.56;5113995;28;20019;-63
2021/09/26 04:37:13;;;;;;;7.47;4.75;;;;;;;11.20;73.88;97124.56;5114139;28;20100;-65
2021/09/26 04:39:38;;;;;;;7.68;4.68;;;;;;;11.21;74.22;97131.53;5114129;28;20032;-69
2021/09/26 04:42:06;;;;;;;7.95;4.95;;;;;;;11.25;74.69;97129.66;5114085;28;20030;-63
2021/09/26 04:44:32;;;;;;;8.57;5.95;;;;;;;11.27;74.18;97130.47;5113932;28;20031;-63
2021/09/26 04:46:58;;;;;;;10.45;5.07;;;;;;;11.28;74.81;97132.19;5114392;28;20374;-63
2021/09/26 04:49:28;;;;;;;7.40;4.95;;;;;;;11.31;74.53;97137.31;5113966;28;20050;-63
2021/09/26 04:51:58;;;;;;;8.07;4.63;;;;;;;11.35;74.53;97125.84;5113958;28;20426;-65
2021/09/26 04:54:24;;;;;;;6.43;4.93;;;;;;;11.74;74.42;97139.47;5114181;28;20044;-65
2021/09/26 04:56:50;;;;;;;4.88;3.80;;;;;;;12.79;72.11;97136.72;5114130;28;20376;-64
2021/09/26 04:59:17;;;;;;;7.53;3.92;;;;;;;13.99;67.35;97139.91;5113630;28;20035;-65
2021/09/26 05:01:43;;;;;;;6.40;3.85;;;;;;;15.24;63.50;97137.09;5114151;28;20019;-64
2021/09/26 05:04:09;;;;;;;3.83;3.03;;;;;;;16.26;59.96;97138.28;5113965;28;20035;-64
2021/09/26 05:06:34;;;;;;;6.95;2.92;;;;;;;17.32;57.50;97133.63;5114169;28;20088;-65
2021/09/26 05:09:00;;;;;;;5.35;3.22;;;;;;;18.24;54.64;97136.38;5113492;28;20028;-63
2021/09/26 05:11:26;;;;;;;7.75;3.42;;;;;;;19.04;52.43;97140.34;5114155;28;20383;-64
2021/09/26 05:13:51;;;;;;;6.75;2.78;;;;;;;19.87;50.44;97132.47;5114114;28;20082;-64
2021/09/26 05:16:17;;;;;;;4.65;2.90;;;;;;;20.45;49.33;97132.13;5113943;28;20418;-63
2021/09/26 05:18:43;;;;;;;4.80;2.92;;;;;;;21.15;47.64;97135.28;5113141;28;20016;-63
2021/09/26 05:21:09;;;;;;;4.70;2.97;;;;;;;21.70;46.60;97128.66;5113748;28;20044;-65
2021/09/26 05:23:35;;;;;;;3.80;2.45;;;;;;;22.29;45.31;97126.13;5113926;28;20104;-67
2021/09/26 05:26:02;;;;;;;4.05;2.90;;;;;;;22.94;44.06;97137.09;5114002;28;20110;-68
2021/09/26 05:28:28;;;;;;;3.42;2.60;;;;;;;23.26;43.52;97138.16;5113721;28;20020;-68
2021/09/26 05:30:53;;;;;;;3.72;2.75;;;;;;;23.79;42.73;97123.25;5113361;28;20064;-65
2021/09/26 05:33:19;;;;;;;2.88;2.55;;;;;;;24.46;40.87;97127.53;5113114;28;20047;-66
2021/09/26 05:35:45;;;;;;;4.63;2.80;;;;;;;25.04;40.71;97133.34;5113309;28;20086;-68
2021/09/26 05:38:10;;;;;;;3.92;2.20;;;;;;;25.48;39.62;97133.88;5113634;28;20046;-70
2021/09/26 05:40:36;;;;;;;4.20;3.05;;;;;;;26.10;38.58;97130.09;5113630;28;20027;-67
2021/09/26 05:43:01;;;;;;;4.57;2.90;;;;;;;26.66;37.08;97137.50;5112970;28;20031;-65
2021/09/26 05:45:27;;;;;;;4.25;2.53;;;;;;;27.12;36.36;97134.94;5111764;28;20016;-66
2021/09/26 05:47:53;;;;;;;3.33;2.38;;;;;;;27.68;35.62;97136.75;5111670;28;20134;-63
2021/09/26 05:50:19;;;;;;;2.67;2.47;;;;;;;28.00;35.05;97138.06;5130911;27;20027;-63
2021/09/26 05:52:45;;;;;;;8.20;2.83;;;;;;;28.24;34.80;97136.56;5117810;27;20048;-63
2021/09/26 05:55:11;;;;;;;5.20;3.53;;;;;;;28.63;34.18;97135.34;5109319;28;20012;-65
2021/09/26 05:57:38;;;;;;;3.63;2.95;;;;;;;29.12;33.50;97141.19;5110285;28;20027;-66
2021/09/26 06:00:05;;;;;;;5.03;2.38;;;;;;;29.34;33.27;97145.13;5113000;28;20035;-65
2021/09/26 06:02:31;;;;;;;5.40;3.03;;;;;;;29.80;32.03;97141.25;5113331;28;20024;-64
2021/09/26 06:04:56;;;;;;;2.97;2.33;;;;;;;30.31;31.57;97142.94;5115839;28;20030;-64
2021/09/26 06:07:22;;;;;;;3.13;2.78;;;;;;;30.82;31.11;97155.38;5117349;28;20088;-64
2021/09/26 06:09:47;;;;;;;5.68;2.80;;;;;;;31.10;30.37;97156.84;5116918;27;20043;-66
2021/09/26 06:12:13;;;;;;;2.75;2.55;;;;;;;31.40;30.55;97165.19;5117539;28;20495;-65
2021/09/26 06:14:40;;;;;;;5.32;2.65;;;;;;;31.87;29.87;97165.22;5117407;28;20487;-66
2021/09/26 06:17:06;;;;;;;4.43;2.90;;;;;;;32.40;29.59;97170.78;5117011;28;20094;-68
2021/09/26 06:19:31;;;;;;;3.83;2.95;;;;;;;32.82;29.03;97166.84;5117263;28;20103;-66
2021/09/26 06:21:57;;;;;;;4.20;2.80;;;;;;;33.07;28.21;97162.03;5117164;28;20081;-63
2021/09/26 06:24:23;;;;;;;4.63;2.88;;;;;;;33.09;26.65;97161.84;5115986;28;20035;-63
2021/09/26 06:26:48;;;;;;;7.82;3.15;;;;;;;33.21;27.02;97154.09;5117263;28;20019;-67
2021/09/26 06:29:14;;;;;;;4.45;3.15;;;;;;;33.34;27.46;97158.81;5116351;28;20072;-69
2021/09/26 06:31:40;;;;;;;6.65;3.42;;;;;;;33.24;28.30;97157.25;5117077;28;20016;-65
2021/09/26 06:34:06;;;;;;;3.97;3.28;;;;;;;33.24;28.65;97151.84;5117046;28;20027;-65
2021/09/26 06:36:33;;;;;;;5.20;2.97;;;;;;;33.01;28.48;97147.34;5110909;28;20023;-65
2021/09/26 06:38:59;;;;;;;4.40;3.33;;;;;;;32.73;29.34;97153.41;5116720;28;20373;-66
2021/09/26 06:41:25;;;;;;;6.03;3.45;;;;;;;32.54;28.95;97146.69;5116465;28;20072;-64
2021/09/26 06:43:50;;;;;;;3.85;3.30;;;;;;;32.33;28.45;97147.34;5116804;28;20415;-65
2021/09/26 06:46:17;;;;;;;4.93;3.50;;;;;;;32.24;29.19;97151.97;5116510;28;20031;-67
2021/09/26 06:48:44;;;;;;;4.82;3.67;;;;;;;32.04;30.22;97155.19;5116824;28;20020;-69
2021/09/26 06:51:11;;;;;;;6.15;3.20;;;;;;;31.86;30.11;97153.59;5116807;28;20027;-64
2021/09/26 06:53:36;;;;;;;8.48;2.80;;;;;;;31.43;30.63;97161.28;5116308;28;20051;-65
2021/09/26 06:56:02;;;;;;;4.38;3.17;;;;;;;31.14;30.62;97161.72;5116127;28;20031;-68
2021/09/26 06:58:27;;;;;;;5.63;3.20;;;;;;;30.92;31.51;97159.75;5116452;28;20016;-64
2021/09/26 07:00:53;;;;;;;6.90;3.60;;;;;;;30.69;31.18;97161.28;5116557;28;20480;-65
2021/09/26 07:03:19;;;;;;;5.70;3.70;;;;;;;30.30;31.98;97162.00;5116492;28;20088;-67
2021/09/26 07:05:45;;;;;;;5.28;3.47;;;;;;;29.92;31.84;97166.03;5115611;28;20027;-65
2021/09/26 07:08:11;;;;;;;6.55;3.22;;;;;;;29.89;32.43;97163.66;5116448;28;20020;-68
2021/09/26 07:10:37;;;;;;;4.18;3.17;;;;;;;29.76;32.57;97164.13;5116313;28;20096;-67
2021/09/26 07:13:03;;;;;;;6.97;3.22;;;;;;;29.61;32.68;97156.69;5116437;28;20019;-63
2021/09/26 07:15:28;;;;;;;7.63;3.50;;;;;;;29.45;33.55;97149.38;5115370;28;20035;-65
2021/09/26 07:17:57;;;;;;;6.78;3.40;;;;;;;29.29;34.05;97152.88;5116123;28;20508;-66
2021/09/26 07:20:24;;;;;;;8.82;3.72;;;;;;;29.21;33.12;97156.38;5116129;28;20028;-63
2021/09/26 07:22:50;;;;;;;7.15;3.20;;;;;;;29.05;33.69;97151.78;5115696;28;20023;-65
2021/09/26 07:25:15;;;;;;;4.85;3.50;;;;;;;28.96;33.91;97161.63;5116172;28;20354;-62
2021/09/26 07:27:41;;;;;;;6.38;3.75;;;;;;;29.05;34.07;97159.00;5116129;28;20346;-67
2021/09/26 07:30:08;;;;;;;5.80;3.60;;;;;;;29.02;34.96;97160.16;5115588;28;20024;-66
2021/09/26 07:32:33;;;;;;;6.15;3.60;;;;;;;29.14;34.76;97156.16;5115038;28;20522;-66
2021/09/26 07:34:59;;;;;;;4.63;3.50;;;;;;;29.07;33.80;97154.31;5115778;28;20016;-64
2021/09/26 07:37:25;;;;;;;7.10;3.78;;;;;;;28.96;33.45;97150.88;5115813;28;20377;-63
2021/09/26 07:39:50;;;;;;;4.88;2.67;;;;;;;29.03;33.92;97156.47;5115763;28;20019;-68
2021/09/26 07:42:16;;;;;;;4.85;3.00;;;;;;;29.13;34.05;97157.19;5115615;28;20015;-64
2021/09/26 07:44:42;;;;;;;5.65;2.85;;;;;;;29.12;33.30;97152.81;5115302;28;20028;-67
2021/09/26 07:47:08;;;;;;;7.07;3.20;;;;;;;29.24;32.96;97149.81;5115740;28;20077;-66
2021/09/26 07:49:34;;;;;;;6.28;2.92;;;;;;;28.96;33.97;97150.88;5115650;28;20427;-66
2021/09/26 07:52:00;;;;;;;4.03;3.28;;;;;;;28.99;33.95;97149.72;5115286;28;20020;-66
2021/09/26 07:54:26;;;;;;;8.55;2.80;;;;;;;29.08;33.46;97148.72;5114669;28;20097;-67
2021/09/26 07:56:52;;;;;;;5.95;3.63;;;;;;;29.18;34.83;97148.63;5114911;28;20476;-68
2021/09/26 07:59:19;;;;;;;7.75;3.92;;;;;;;29.30;33.47;97151.88;5115100;28;20464;-66
2021/09/26 08:01:46;;;;;;;5.03;3.28;;;;;;;29.37;33.81;97146.66;5115256;28;20035;-66
2021/09/26 08:04:11;;;;;;;4.88;3.03;;;;;;;29.43;32.58;97151.38;5113661;28;20036;-67
2021/09/26 08:06:37;;;;;;;4.63;3.42;;;;;;;29.48;32.97;97140.13;5114970;28;20016;-64
2021/09/26 08:09:03;;;;;;;4.95;3.47;;;;;;;29.57;33.64;97149.97;5113833;28;20470;-67
2021/09/26 08:11:29;;;;;;;3.67;3.35;;;;;;;29.61;32.30;97151.31;5115258;28;20016;-66
2021/09/26 08:13:55;;;;;;;4.75;3.45;;;;;;;29.49;32.70;97160.66;5114858;28;20133;-64
2021/09/26 08:16:20;;;;;;;5.32;3.10;;;;;;;29.35;32.47;97157.59;5114660;28;20020;-62
2021/09/26 08:18:46;;;;;;;4.07;2.80;;;;;;;29.50;32.65;97148.91;5113905;28;20077;-60
2021/09/26 08:21:11;;;;;;;7.65;3.28;;;;;;;29.34;31.98;97150.53;5114852;28;20111;-61
2021/09/26 08:23:37;;;;;;;9.70;3.30;;;;;;;29.18;32.74;97153.16;5114879;28;20473;-61
2021/09/26 08:26:03;;;;;;;2.92;2.60;;;;;;;29.35;33.78;97154.91;5114070;28;20092;-61
2021/09/26 08:28:29;;;;;;;4.93;3.00;;;;;;;29.38;31.97;97146.50;5114370;28;20031;-62
2021/09/26 08:30:55;;;;;;;8.70;3.00;;;;;;;29.29;32.99;97146.63;5114829;28;20020;-59
2021/09/26 08:33:20;;;;;;;5.25;3.45;;;;;;;29.38;33.10;97151.06;5114394;28;20118;-61
2021/09/26 08:35:46;;;;;;;6.00;3.42;;;;;;;29.58;32.62;97153.47;5114646;28;20107;-61
2021/09/26 08:38:11;;;;;;;3.65;3.35;;;;;;;29.42;33.19;97152.41;5114602;28;20055;-61
2021/09/26 08:40:37;;;;;;;4.65;3.10;;;;;;;29.28;33.01;97150.34;5114641;28;20111;-61
2021/09/26 08:43:02;;;;;;;6.53;2.70;;;;;;;29.18;33.13;97154.00;5114443;28;20023;-60
2021/09/26 08:45:29;;;;;;;5.25;3.13;;;;;;;29.12;31.63;97144.72;5113816;28;20031;-61
2021/09/26 08:47:57;;;;;;;4.63;3.28;;;;;;;29.17;31.72;97143.41;5113162;28;20096;-61
2021/09/26 08:50:23;;;;;;;3.13;2.70;;;;;;;28.71;31.37;97133.75;5114357;28;20047;-61
2021/09/26 08:52:49;;;;;;;4.32;3.17;;;;;;;28.66;34.11;97131.53;5114054;28;20086;-61
2021/09/26 08:55:16;;;;;;;4.68;3.13;;;;;;;28.64;33.45;97125.44;5114108;28;20085;-61
2021/09/26 08:57:43;;;;;;;4.57;3.53;;;;;;;28.56;35.43;97131.59;5114271;28;20513;-61
2021/09/26 09:00:13;;;;;;;4.97;3.15;;;;;;;28.42;34.06;97127.69;5114233;28;20061;-61
2021/09/26 09:02:38;;;;;;;4.85;3.60;;;;;;;28.22;34.08;97119.75;5114136;28;20029;-60
2021/09/26 09:05:06;;;;;;;5.25;3.58;;;;;;;28.24;33.86;97119.59;5113261;28;20118;-60
2021/09/26 09:07:32;;;;;;;6.25;3.70;;;;;;;28.05;34.83;97116.09;5114190;28;20107;-61
2021/09/26 09:10:00;;;;;;;7.82;3.75;;;;;;;28.12;35.32;97114.47;5114145;28;20111;-61
2021/09/26 09:12:32;;;;;;;4.75;3.40;;;;;;;27.59;35.59;97119.69;5114036;28;20086;-60
2021/09/26 09:15:05;;;;;;;7.68;4.10;;;;;;;27.70;35.72;97123.19;5113719;28;20039;-60
2021/09/26 09:17:34;;;;;;;12.65;3.75;;;;;;;27.83;35.42;97120.97;5114111;28;20076;-61
2021/09/26 09:20:23;;;;;;;5.33;3.87;;;;;;;27.91;35.48;97117.50;5114002;28;20016;-60
2021/09/26 09:23:06;;;;;;;11.18;3.55;;;;;;;28.04;35.35;97116.25;5113949;28;20035;-60
2021/09/26 09:25:41;;;;;;;6.28;3.40;;;;;;;28.31;35.32;97109.09;5113394;28;20019;-61
2021/09/26 09:28:15;;;;;;;4.10;3.70;;;;;;;28.04;34.43;97113.56;5113852;28;20369;-60
2021/09/26 09:30:45;;;;;;;6.07;4.40;;;;;;;28.02;35.94;97108.34;5113907;28;20024;-61
2021/09/26 09:33:11;;;;;;;5.07;3.63;;;;;;;28.11;36.15;97114.66;5113801;27;20024;-62
2021/09/26 09:35:42;;;;;;;4.15;3.53;;;;;;;27.99;36.82;97112.19;5113416;28;20023;-62
2021/09/26 09:38:08;;;;;;;5.85;3.88;;;;;;;28.05;35.84;97105.34;5113526;28;20028;-61
2021/09/26 09:40:34;;;;;;;7.68;3.47;;;;;;;27.93;35.78;97102.06;5113601;28;20073;-60
2021/09/26 09:42:59;;;;;;;7.40;3.95;;;;;;;27.59;34.16;97098.19;5113560;28;20093;-62
2021/09/26 09:45:26;;;;;;;6.90;3.70;;;;;;;27.71;35.80;97101.53;5113136;28;20502;-61
2021/09/26 09:47:59;;;;;;;5.57;3.70;;;;;;;27.95;36.78;97101.91;5113581;28;20372;-61
2021/09/26 09:50:34;;;;;;;8.32;4.15;;;;;;;28.20;35.92;97102.94;5113656;28;20016;-62
2021/09/26 09:53:01;;;;;;;4.65;3.53;;;;;;;28.25;35.24;97106.00;5113235;28;20507;-61
2021/09/26 09:55:29;;;;;;;5.25;3.67;;;;;;;28.38;33.07;97102.94;5113072;28;20028;-61
2021/09/26 09:58:16;;;;;;;5.75;3.30;;;;;;;28.42;34.38;97099.91;5113606;28;20016;-62
2021/09/26 10:01:02;;;;;;;5.72;3.90;;;;;;;28.34;33.06;97100.72;5113455;28;20473;-60
2021/09/26 10:03:56;;;;;;;4.72;3.88;;;;;;;28.21;35.43;97098.41;5113537;28;20031;-60
2021/09/26 10:06:35;;;;;;;5.65;3.50;;;;;;;28.39;33.97;97095.72;5112844;28;20111;-61
2021/09/26 10:09:22;;;;;;;6.47;3.90;;;;;;;28.54;32.21;97093.28;5113068;28;20063;-61
2021/09/26 10:11:48;;;;;;;10.65;4.07;;;;;;;28.51;35.48;97091.72;5113494;28;20020;-61
2021/09/26 10:14:14;;;;;;;8.75;3.88;;;;;;;28.56;35.21;97088.56;5113297;28;20023;-61
2021/09/26 10:16:41;;;;;;;6.85;4.30;;;;;;;28.67;34.13;97086.59;5112691;28;20016;-62
2021/09/26 10:19:07;;;;;;;6.43;4.28;;;;;;;28.46;34.41;97083.31;5113250;28;20362;-61
2021/09/26 10:21:33;;;;;;;7.10;3.60;;;;;;;28.65;34.66;97085.94;5113351;28;20509;-62
2021/09/26 10:23:59;;;;;;;5.43;3.70;;;;;;;28.69;34.12;97080.09;5113164;28;20784;-61
2021/09/26 10:26:26;;;;;;;8.85;3.83;;;;;;;28.53;34.80;97080.81;5112681;28;20022;-60
2021/09/26 10:28:55;;;;;;;4.57;3.60;;;;;;;28.40;33.37;97067.81;5112548;28;20024;-61
2021/09/26 10:31:25;;;;;;;5.20;3.90;;;;;;;28.41;34.28;97072.16;5113231;28;20027;-61
2021/09/26 10:33:51;;;;;;;6.70;4.13;;;;;;;28.38;34.27;97072.50;5113029;28;20028;-62
2021/09/26 10:36:21;;;;;;;6.10;3.70;;;;;;;28.37;33.26;97068.13;5112775;28;20027;-61
2021/09/26 10:38:49;;;;;;;5.78;3.30;;;;;;;28.42;33.53;97068.50;5113092;28;20032;-61
2021/09/26 10:41:15;;;;;;;6.68;3.75;;;;;;;28.48;33.63;97059.78;5112934;28;20023;-61
2021/09/26 10:43:42;;;;;;;5.03;3.55;;;;;;;28.38;32.19;97056.34;5112983;28;20110;-62
2021/09/26 10:46:13;;;;;;;7.28;4.28;;;;;;;28.33;33.38;97056.84;5112793;28;20411;-61
2021/09/26 10:49:04;;;;;;;5.95;3.95;;;;;;;28.28;32.83;97056.44;5113189;28;20035;-62
2021/09/26 10:51:47;;;;;;;8.20;3.88;;;;;;;28.26;34.84;97055.75;5116046;28;20028;-62
2021/09/26 10:54:25;;;;;;;6.60;3.95;;;;;;;28.27;33.40;97052.06;5116468;28;20496;-60
2021/09/26 10:57:18;;;;;;;3.53;2.97;;;;;;;28.25;32.67;97048.69;5116424;28;20031;-62
2021/09/26 10:59:46;;;;;;;7.18;3.75;;;;;;;28.02;34.34;97043.00;5110301;27;20118;-62
2021/09/26 11:02:24;;;;;;;4.32;3.55;;;;;;;28.08;35.30;97031.63;5116507;28;20031;-62
2021/09/26 11:04:51;;;;;;;8.40;3.70;;;;;;;28.13;35.36;97032.84;5116453;28;20032;-62
2021/09/26 11:07:44;;;;;;;5.28;3.65;;;;;;;28.18;33.61;97034.19;5115589;28;20529;-62
2021/09/26 11:10:10;;;;;;;6.88;3.78;;;;;;;28.10;32.61;97025.06;5110753;28;20044;-61
2021/09/26 11:12:39;;;;;;;6.22;3.83;;;;;;;27.98;35.29;97019.13;5116404;28;20045;-61
2021/09/26 11:15:20;;;;;;;7.47;4.15;;;;;;;28.01;35.64;97020.66;5116387;28;20098;-60
2021/09/26 11:17:47;;;;;;;4.10;3.45;;;;;;;28.14;33.87;97017.53;5115754;28;20027;-62
2021/09/26 11:20:32;;;;;;;5.50;3.40;;;;;;;28.16;34.28;97012.84;5116328;28;20491;-61
2021/09/26 11:23:08;;;;;;;5.13;3.70;;;;;;;28.27;33.71;97014.44;5115996;28;20031;-62
2021/09/26 11:25:56;;;;;;;5.70;3.25;;;;;;;27.92;32.29;97016.19;5116066;28;20027;-62
2021/09/26 11:28:23;;;;;;;4.95;3.45;;;;;;;27.54;33.19;97011.03;5115917;28;20057;-60
2021/09/26 11:30:50;;;;;;;5.03;3.33;;;;;;;27.57;33.62;97006.16;5115983;28;20095;-61
2021/09/26 11:33:16;;;;;;;4.70;3.35;;;;;;;27.65;34.91;97000.06;5115804;28;20051;-61
2021/09/26 11:35:42;;;;;;;5.00;3.35;;;;;;;27.73;34.85;96993.91;5115974;28;20072;-62
2021/09/26 11:38:11;;;;;;;6.15;3.40;;;;;;;27.79;33.70;96997.81;5115724;28;20043;-62